EGWC - Cosford Royal Air Force Base
Distance from station: E 5mi, 14km
Updated: 07/19/2018 8:50am
NOT Current
Partly Cloudy
Partly Cloudy
 Wind from N
Wind: N 2 mph , 4 km/h
Temperature: 75°F , 24°C
Dew Point: 50°F , 10°C
Humidity: 41%
Barometer: 30.03 inHg , 1017 hPa
Clouds: Partly Cloudy
Visibility: 6 miles , 10 km
Cloud details: Partly Cloudy 4000 ft
2018/07/19 15:50 EGWC 191550Z 36002KT 9999 SCT040 24/10 Q1017 BLU